createdAt,value
2017-04-03T14:17:59.309Z,49.90
2017-04-03T14:18:58.394Z,47.50
2017-04-03T14:19:56.774Z,47.40
2017-04-03T14:20:55.060Z,47.90
2017-04-03T14:21:53.461Z,48.70
2017-04-03T14:22:52.621Z,44.20
2017-04-03T14:23:51.011Z,44.10
2017-04-03T14:24:49.298Z,43.90
2017-04-03T14:25:47.610Z,42.20
2017-04-03T14:26:45.959Z,43.50
2017-04-03T14:27:45.087Z,42.30
2017-04-03T14:28:43.402Z,42.20
2017-04-03T14:29:41.810Z,44.30
2017-04-03T14:30:40.879Z,43.60
2017-04-03T14:31:39.255Z,43.50
2017-04-03T14:32:38.290Z,45.80
2017-04-03T14:33:37.369Z,45.00
2017-04-03T14:34:35.668Z,45.00
2017-04-03T14:35:34.754Z,45.40
2017-04-03T14:36:33.015Z,45.30
2017-04-03T14:37:32.085Z,44.70
2017-04-03T14:38:30.401Z,44.60
2017-04-03T14:39:28.671Z,44.00
2017-04-03T14:40:26.967Z,45.80
2017-04-03T14:41:25.282Z,45.10
2017-04-03T14:42:24.393Z,44.90
2017-04-03T14:43:22.677Z,44.90
2017-04-03T14:44:20.963Z,45.50
2017-04-03T14:45:19.251Z,43.90
2017-04-03T14:46:18.343Z,42.60
2017-04-03T14:47:17.397Z,42.00
2017-04-03T14:48:16.434Z,42.30
2017-04-03T14:49:14.714Z,42.10
2017-04-03T14:50:13.804Z,42.10
2017-04-03T14:51:12.081Z,42.00
2017-04-03T14:52:11.121Z,40.60
2017-04-03T14:53:09.385Z,40.60
2017-04-03T14:54:07.661Z,43.30
2017-04-03T14:55:06.701Z,41.20
2017-04-03T14:56:06.240Z,41.40
2017-04-03T14:57:04.600Z,41.30
2017-04-03T14:58:02.881Z,40.90
2017-04-03T14:59:01.239Z,43.30
2017-04-03T14:59:59.507Z,44.30
2017-04-03T15:00:57.850Z,45.50
2017-04-03T15:01:57.011Z,48.00
2017-04-03T15:02:56.130Z,46.30
2017-04-03T15:03:54.562Z,46.30
2017-04-03T15:04:53.650Z,47.30
2017-04-03T15:05:52.018Z,47.20
2017-04-03T15:06:51.050Z,46.10
2017-04-03T15:07:49.317Z,46.10
2017-04-03T15:08:48.370Z,46.60
2017-04-03T15:09:46.650Z,46.70
2017-04-03T15:10:45.743Z,49.70
2017-04-03T15:11:44.132Z,49.70
2017-04-03T15:12:43.307Z,49.50
2017-04-03T15:13:41.589Z,49.50
2017-04-03T15:14:39.930Z,49.40
2017-04-03T15:15:38.263Z,46.70
2017-04-03T15:16:37.383Z,49.00
2017-04-03T15:17:35.950Z,49.00
2017-04-03T15:18:34.381Z,49.10
2017-04-03T15:19:32.690Z,47.70
2017-04-03T15:20:31.030Z,46.50
2017-04-03T15:21:30.158Z,48.30
2017-04-03T15:22:28.482Z,48.30
2017-04-03T15:23:26.826Z,46.60
2017-04-03T15:24:26.008Z,47.20
2017-04-03T15:25:24.318Z,46.50
2017-04-03T15:26:22.853Z,47.40
2017-04-03T15:27:21.255Z,48.10
2017-04-03T15:28:19.586Z,49.60
2017-04-03T15:29:17.976Z,48.80
2017-04-03T15:30:16.372Z,46.80
2017-04-03T15:31:14.877Z,46.60
2017-04-03T15:32:13.209Z,45.50
2017-04-03T15:33:11.533Z,45.10
2017-04-03T15:34:09.870Z,46.40
2017-04-03T15:35:08.208Z,43.50
2017-04-03T15:36:06.509Z,44.40
2017-04-03T15:37:05.638Z,43.50
2017-04-03T15:38:04.791Z,45.10
2017-04-03T15:39:03.115Z,45.10
2017-04-03T15:40:02.160Z,46.10
2017-04-03T15:41:00.462Z,46.10
2017-04-03T15:41:58.750Z,47.50
2017-04-03T15:42:57.907Z,48.40
2017-04-03T15:43:56.205Z,48.40
2017-04-03T15:44:55.241Z,49.00
2017-04-03T15:45:53.574Z,49.00
2017-04-03T15:46:52.777Z,49.40
2017-04-03T15:47:51.858Z,46.60
2017-04-03T15:48:50.162Z,46.50
2017-04-03T15:49:48.583Z,47.20
2017-04-03T15:50:46.966Z,48.30
2017-04-03T15:51:45.290Z,48.30
2017-04-03T15:52:43.599Z,48.60
2017-04-03T15:53:42.665Z,46.20
2017-04-03T15:54:41.045Z,46.10
2017-04-03T15:55:39.363Z,46.20
2017-04-03T15:56:38.454Z,45.90
2017-04-03T15:57:36.730Z,45.80
2017-04-03T15:58:35.003Z,46.00
2017-04-03T15:59:33.279Z,47.40
2017-04-03T16:00:33.097Z,48.10
2017-04-03T16:01:31.463Z,48.20
2017-04-03T16:02:29.802Z,48.90
2017-04-03T16:03:28.077Z,46.90
2017-04-03T16:04:27.130Z,48.80
2017-04-03T16:05:25.406Z,48.70
2017-04-03T16:06:23.791Z,49.60
2017-04-03T16:07:22.931Z,50.80
2017-04-03T16:08:21.294Z,50.70
2017-04-03T16:09:19.804Z,51.30
2017-04-03T16:10:18.123Z,51.20
2017-04-03T16:11:17.306Z,49.50
2017-04-03T16:12:15.612Z,49.40
2017-04-03T16:13:13.881Z,50.60
2017-04-03T16:14:12.173Z,49.50
2017-04-03T16:15:10.470Z,50.80
2017-04-03T16:16:08.788Z,51.10
2017-04-03T16:17:07.238Z,51.60
2017-04-03T16:18:05.570Z,53.10
2017-04-03T16:19:03.858Z,53.50
2017-04-03T16:20:02.168Z,53.50
2017-04-03T16:21:01.220Z,52.70
2017-04-03T16:21:59.662Z,52.50
2017-04-03T16:22:58.863Z,51.70
2017-04-03T16:23:57.166Z,51.60
2017-04-03T16:24:55.448Z,50.80
2017-04-03T16:25:53.711Z,51.50
2017-04-03T16:26:52.083Z,51.30
2017-04-03T16:27:50.785Z,50.10
2017-04-03T16:28:49.913Z,50.30
2017-04-03T16:29:48.234Z,50.20
2017-04-03T16:30:47.369Z,51.70
2017-04-03T16:31:45.678Z,51.60
2017-04-03T16:32:44.002Z,51.10
2017-04-03T16:33:42.312Z,51.40
2017-04-03T16:34:40.590Z,51.50
2017-04-03T16:35:39.654Z,49.80
2017-04-03T16:36:37.995Z,49.70
2017-04-03T16:37:36.309Z,50.20
2017-04-03T16:38:34.586Z,51.10
2017-04-03T16:39:33.636Z,53.30
2017-04-03T16:40:31.952Z,53.30
2017-04-03T16:41:30.370Z,53.50
2017-04-03T16:42:28.645Z,53.10
2017-04-03T16:43:26.950Z,51.60
2017-04-03T16:44:26.063Z,53.40
2017-04-03T16:45:24.812Z,53.30
2017-04-03T16:46:23.116Z,53.70
2017-04-03T16:47:22.439Z,53.30
2017-04-03T16:48:20.719Z,53.30
2017-04-03T16:49:19.926Z,54.00
2017-04-03T16:50:18.211Z,54.00
2017-04-03T16:51:16.502Z,53.80
2017-04-03T16:52:15.578Z,52.20
2017-04-03T16:53:13.966Z,52.10
2017-04-03T16:54:12.239Z,51.20
2017-04-03T16:55:10.552Z,52.00
2017-04-03T16:56:08.850Z,53.30
2017-04-03T16:57:07.126Z,53.60
2017-04-03T16:58:06.221Z,52.90
2017-04-03T16:59:04.508Z,52.90
2017-04-03T17:00:02.849Z,52.80
2017-04-03T17:01:01.197Z,53.60
2017-04-03T17:01:59.504Z,53.70
2017-04-03T17:02:57.810Z,53.50
2017-04-03T17:03:56.284Z,53.40
2017-04-03T17:04:54.573Z,53.10
2017-04-03T17:05:52.854Z,53.20
2017-04-03T17:06:51.135Z,52.90
2017-04-03T17:07:49.475Z,53.60
2017-04-03T17:08:47.749Z,52.10
2017-04-03T17:09:46.112Z,53.60
2017-04-03T17:10:44.457Z,53.60
2017-04-03T17:11:43.525Z,53.80
2017-04-03T17:12:41.844Z,53.70
2017-04-03T17:13:40.122Z,53.30
2017-04-03T17:14:38.480Z,54.00
2017-04-03T17:15:36.763Z,54.40
2017-04-03T17:16:35.036Z,54.70
2017-04-03T17:17:33.326Z,54.90
2017-04-03T17:18:31.619Z,54.50
2017-04-03T17:19:29.912Z,55.30
2017-04-03T17:20:29.020Z,56.10
2017-04-03T17:21:27.315Z,56.10
2017-04-03T17:22:25.583Z,55.80
2017-04-03T17:23:23.868Z,55.90
2017-04-03T17:24:22.907Z,56.00
2017-04-03T17:25:21.211Z,55.90
2017-04-03T17:26:19.588Z,56.50
2017-04-03T17:27:18.659Z,56.30
2017-04-03T17:28:17.053Z,56.30
2017-04-03T17:29:15.327Z,56.70
2017-04-03T17:30:13.635Z,56.60
2017-04-03T17:31:11.902Z,56.90
2017-04-03T17:32:10.264Z,57.70
2017-04-03T17:33:08.550Z,57.60
2017-04-03T17:34:06.868Z,58.00
2017-04-03T17:35:05.231Z,58.50
2017-04-03T17:36:03.585Z,58.70
2017-04-03T17:37:01.870Z,59.00
2017-04-03T17:38:00.174Z,59.30
2017-04-03T17:38:58.503Z,59.20
2017-04-03T17:39:56.822Z,59.40
2017-04-03T17:40:55.119Z,59.60
2017-04-03T17:41:53.523Z,59.70
2017-04-03T17:42:51.808Z,60.20
2017-04-03T17:43:50.132Z,60.70
2017-04-03T17:44:48.428Z,60.80
2017-04-03T17:45:46.718Z,60.90
2017-04-03T17:46:45.058Z,61.00
2017-04-03T17:47:44.119Z,61.20
2017-04-03T17:48:42.431Z,61.00
2017-04-03T17:49:41.588Z,61.10
2017-04-03T17:50:39.913Z,61.10
2017-04-03T17:51:38.271Z,61.30
2017-04-03T17:52:36.587Z,61.70
2017-04-03T17:53:34.953Z,61.90
2017-04-03T17:54:33.245Z,62.30
2017-04-03T17:55:31.566Z,62.50
2017-04-03T17:56:29.845Z,62.70
2017-04-03T17:57:28.149Z,63.00
2017-04-03T17:58:26.516Z,63.20
2017-04-03T17:59:24.830Z,63.40
2017-04-03T18:00:24.014Z,64.00
2017-04-03T18:01:23.091Z,64.10
2017-04-03T18:02:22.242Z,64.50
2017-04-03T18:03:20.710Z,64.50
2017-04-03T18:04:19.032Z,64.90
2017-04-03T18:05:17.356Z,65.10
2017-04-03T18:06:15.690Z,65.30
2017-04-03T18:07:13.974Z,65.50
2017-04-03T18:08:12.287Z,65.60
2017-04-03T18:09:10.806Z,65.60
2017-04-03T18:10:09.139Z,65.50
2017-04-03T18:11:07.445Z,65.50
2017-04-03T18:12:05.734Z,65.80
2017-04-03T18:13:04.624Z,66.00
2017-04-03T18:14:03.695Z,66.50
2017-04-03T18:15:02.560Z,66.90
2017-04-03T18:16:01.556Z,67.20
2017-04-03T18:17:00.252Z,67.00
2017-04-03T18:17:59.626Z,66.90
2017-04-03T18:18:58.663Z,67.20
2017-04-03T18:19:56.954Z,67.20
2017-04-03T18:20:55.323Z,66.80
2017-04-03T18:21:53.656Z,66.70
2017-04-03T18:22:51.915Z,66.60
2017-04-03T18:23:50.190Z,66.90
2017-04-03T18:24:48.464Z,67.00
2017-04-03T18:25:46.787Z,67.40
2017-04-03T18:26:45.156Z,67.60
2017-04-03T18:27:43.530Z,67.60
2017-04-03T18:28:41.882Z,67.50
2017-04-03T18:29:40.198Z,68.00
2017-04-03T18:30:38.515Z,68.20
2017-04-03T18:31:36.827Z,68.30
2017-04-03T18:32:35.216Z,67.80
2017-04-03T18:33:33.518Z,68.60
2017-04-03T18:34:31.808Z,68.50
2017-04-03T18:35:30.095Z,68.20
2017-04-03T18:36:28.375Z,68.60
2017-04-03T18:37:26.668Z,69.50
2017-04-03T18:38:25.065Z,68.90
2017-04-03T18:39:23.371Z,69.20
2017-04-03T18:40:21.686Z,69.40
2017-04-03T18:41:19.966Z,69.40
2017-04-03T18:42:19.041Z,68.90
2017-04-03T18:43:18.146Z,69.00
2017-04-03T18:44:16.524Z,69.00
2017-04-03T18:45:15.627Z,69.80
2017-04-03T18:46:14.665Z,70.50
2017-04-03T18:47:13.154Z,70.50
2017-04-03T18:48:12.253Z,70.80
2017-04-03T18:49:10.549Z,70.70
2017-04-03T18:50:08.983Z,70.80
2017-04-03T18:51:07.461Z,70.80
2017-04-03T18:52:05.743Z,70.60
2017-04-03T18:53:04.828Z,70.30
2017-04-03T18:54:04.106Z,70.10
2017-04-03T18:55:03.177Z,70.00
2017-04-03T18:56:02.334Z,69.90
2017-04-03T18:57:01.406Z,70.30
2017-04-03T18:58:00.453Z,70.60
2017-04-03T18:58:59.486Z,70.70
2017-04-03T18:59:57.826Z,70.70
2017-04-03T19:00:56.182Z,70.80
2017-04-03T19:01:54.554Z,70.80
2017-04-03T19:02:52.885Z,70.70
2017-04-03T19:03:51.183Z,71.10
2017-04-03T19:04:49.455Z,71.20
2017-04-03T19:05:47.851Z,71.00
2017-04-03T19:06:46.162Z,70.80
2017-04-03T19:07:44.534Z,71.30
2017-04-03T19:08:42.841Z,72.00
2017-04-03T19:09:41.941Z,72.40
2017-04-03T19:10:40.338Z,72.30
2017-04-03T19:11:38.673Z,71.70
2017-04-03T19:12:36.974Z,71.50
2017-04-03T19:13:35.388Z,71.50
2017-04-03T19:14:33.844Z,71.60
2017-04-03T19:15:32.194Z,72.00
2017-04-03T19:16:31.287Z,73.00
2017-04-03T19:17:30.402Z,73.00
2017-04-03T19:18:29.503Z,73.40
2017-04-03T19:19:27.850Z,73.30
2017-04-03T19:20:26.205Z,73.70
2017-04-03T19:21:24.496Z,73.90
2017-04-03T19:22:22.772Z,73.90
2017-04-03T19:23:21.212Z,74.00
2017-04-03T19:24:19.550Z,73.60
2017-04-03T19:25:17.951Z,73.30
2017-04-03T19:26:16.252Z,73.60
2017-04-03T19:27:14.646Z,73.60
2017-04-03T19:28:12.936Z,74.00
2017-04-03T19:29:11.981Z,73.20
2017-04-03T19:30:10.326Z,73.20
2017-04-03T19:31:09.594Z,72.80
2017-04-03T19:32:08.675Z,72.60
2017-04-03T19:33:07.750Z,72.40
2017-04-03T19:34:07.017Z,72.00
2017-04-03T19:35:05.342Z,72.00
2017-04-03T19:36:04.401Z,71.90
2017-04-03T19:37:02.982Z,71.80
2017-04-03T19:38:01.529Z,72.00
2017-04-03T19:38:59.891Z,72.40
2017-04-03T19:39:59.242Z,72.30
2017-04-03T19:40:57.593Z,72.20
2017-04-03T19:41:55.919Z,72.50
2017-04-03T19:42:55.087Z,73.00
2017-04-03T19:43:53.390Z,72.80
2017-04-03T19:44:52.568Z,73.20
2017-04-03T19:45:50.882Z,73.20
2017-04-03T19:46:49.162Z,73.80
2017-04-03T19:47:47.501Z,74.30
2017-04-03T19:48:45.891Z,74.20
2017-04-03T19:49:44.193Z,74.00
2017-04-03T19:50:43.398Z,74.30
2017-04-03T19:51:41.767Z,74.20
2017-04-03T19:52:40.096Z,74.40
2017-04-03T19:53:39.142Z,74.00
2017-04-03T19:54:38.303Z,73.80
2017-04-03T19:55:36.593Z,73.60
2017-04-03T19:56:34.884Z,73.60
2017-04-03T19:57:33.947Z,74.20
2017-04-03T19:58:33.001Z,74.50
2017-04-03T19:59:31.321Z,74.40
2017-04-03T20:00:30.470Z,74.80
2017-04-03T20:01:28.747Z,74.80
2017-04-03T20:02:27.813Z,74.90
2017-04-03T20:03:26.911Z,74.80
2017-04-03T20:04:25.280Z,74.80
2017-04-03T20:05:23.655Z,74.60
2017-04-03T20:06:22.039Z,74.20
2017-04-03T20:07:20.326Z,74.00
2017-04-03T20:08:18.646Z,74.50
2017-04-03T20:09:17.987Z,75.30
2017-04-03T20:10:17.005Z,75.30
2017-04-03T20:11:16.099Z,75.30
2017-04-03T20:12:14.503Z,75.30
2017-04-03T20:13:12.814Z,75.10
2017-04-03T20:14:11.198Z,75.00
2017-04-03T20:15:10.292Z,74.50
2017-04-03T20:16:08.651Z,74.50
2017-04-03T20:17:07.034Z,74.50
2017-04-03T20:18:05.554Z,74.60
2017-04-03T20:19:03.864Z,74.90
2017-04-03T20:20:02.255Z,75.10
2017-04-03T20:21:01.435Z,75.90
2017-04-03T20:21:59.763Z,75.90
2017-04-03T20:22:58.319Z,76.10
2017-04-03T20:23:57.552Z,75.90
2017-04-03T20:24:56.667Z,75.70
2017-04-03T20:25:55.757Z,75.40
2017-04-03T20:26:54.215Z,75.40
2017-04-03T20:27:52.708Z,75.30
2017-04-03T20:28:51.927Z,75.80
2017-04-03T20:29:50.547Z,75.80
2017-04-03T20:30:49.718Z,76.10
2017-04-03T20:31:48.231Z,76.10
2017-04-03T20:32:46.651Z,76.00
2017-04-03T20:33:45.068Z,76.30
2017-04-03T20:34:43.510Z,76.60
2017-04-03T20:35:42.745Z,76.70
2017-04-03T20:36:41.824Z,76.70
2017-04-03T20:37:40.250Z,76.50
2017-04-03T20:38:39.409Z,77.10
2017-04-03T20:39:38.557Z,77.20
2017-04-03T20:40:36.924Z,77.10
2017-04-03T20:41:35.335Z,77.00
2017-04-03T20:42:33.824Z,76.90
2017-04-03T20:43:32.930Z,76.60
2017-04-03T20:44:32.049Z,76.70
2017-04-03T20:45:30.411Z,76.70
2017-04-03T20:46:28.709Z,76.90
2017-04-03T20:47:27.895Z,76.70
2017-04-03T20:48:26.257Z,76.60
2017-04-03T20:49:25.372Z,76.80
2017-04-03T20:50:23.675Z,76.80
2017-04-03T20:51:22.770Z,77.10
2017-04-03T20:52:21.058Z,77.00
2017-04-03T20:53:20.204Z,77.00
2017-04-03T20:54:18.491Z,77.00
2017-04-03T20:55:16.812Z,76.80
2017-04-03T20:56:15.158Z,76.60
2017-04-03T20:57:13.458Z,76.50
2017-04-03T20:58:11.747Z,76.40
2017-04-03T20:59:10.167Z,76.30
2017-04-03T21:00:08.564Z,76.30
2017-04-03T21:01:06.898Z,76.40
2017-04-03T21:02:05.271Z,76.40
2017-04-03T21:03:03.777Z,76.50
2017-04-03T21:04:02.097Z,76.60
2017-04-03T21:05:00.439Z,76.70
2017-04-03T21:05:58.732Z,76.70
2017-04-03T21:06:57.020Z,76.80
2017-04-03T21:07:55.435Z,76.70
2017-04-03T21:08:53.717Z,76.70
2017-04-03T21:09:52.286Z,76.90
2017-04-03T21:10:51.430Z,77.40
2017-04-03T21:11:49.779Z,77.30
2017-04-03T21:12:48.063Z,77.40
2017-04-03T21:13:46.382Z,77.40
2017-04-03T21:14:45.463Z,77.30
2017-04-03T21:15:43.781Z,77.30
2017-04-03T21:16:42.212Z,77.40
2017-04-03T21:17:40.462Z,77.40
2017-04-03T21:18:38.827Z,77.30
2017-04-03T21:19:37.924Z,77.30
2017-04-03T21:20:36.245Z,77.10
2017-04-03T21:21:34.536Z,77.40
2017-04-03T21:22:32.981Z,77.40
2017-04-03T21:23:31.561Z,77.50
2017-04-03T21:24:29.945Z,77.50
2017-04-03T21:25:28.242Z,77.60
2017-04-03T21:26:26.629Z,77.60
2017-04-03T21:27:24.918Z,77.50
2017-04-03T21:28:23.726Z,77.50
2017-04-03T21:29:22.006Z,77.40
2017-04-03T21:30:20.298Z,77.40
2017-04-03T21:31:18.611Z,77.70
2017-04-03T21:32:16.903Z,78.00
2017-04-03T21:33:15.411Z,78.20
2017-04-03T21:34:13.867Z,78.20
2017-04-03T21:35:13.033Z,77.90
2017-04-03T21:36:11.383Z,77.90
2017-04-03T21:37:09.926Z,77.90
2017-04-03T21:38:08.239Z,78.00
2017-04-03T21:39:06.601Z,78.40
2017-04-03T21:40:05.265Z,78.50
2017-04-03T21:41:03.570Z,78.70
2017-04-03T21:42:01.882Z,78.90
2017-04-03T21:43:00.311Z,79.10
2017-04-03T21:43:58.577Z,79.40
2017-04-03T21:44:56.844Z,79.50
2017-04-03T21:45:55.254Z,79.30
2017-04-03T21:46:54.751Z,79.00
2017-04-03T21:47:53.034Z,79.00
2017-04-03T21:48:51.307Z,78.80
2017-04-03T21:49:49.591Z,78.70
2017-04-03T21:50:47.897Z,78.70
2017-04-03T21:51:46.239Z,78.70
2017-04-03T21:52:45.276Z,78.70
2017-04-03T21:53:44.287Z,78.60
2017-04-03T21:54:42.555Z,78.60
2017-04-03T21:55:41.586Z,78.50
2017-04-03T21:56:39.941Z,78.30
2017-04-03T21:57:38.273Z,78.30
2017-04-03T21:58:36.552Z,78.20
2017-04-03T21:59:34.827Z,78.20
2017-04-03T22:00:33.362Z,78.20
2017-04-03T22:01:31.628Z,78.30
2017-04-03T22:02:29.935Z,78.30
2017-04-03T22:03:28.301Z,78.30
2017-04-03T22:04:26.553Z,78.30
2017-04-03T22:05:24.835Z,78.30
2017-04-03T22:06:23.134Z,78.40
2017-04-03T22:07:21.397Z,78.60
2017-04-03T22:08:19.668Z,78.70
2017-04-03T22:09:18.038Z,78.70
2017-04-03T22:10:16.350Z,78.40
2017-04-03T22:11:14.622Z,78.20
2017-04-03T22:12:12.962Z,77.90
2017-04-03T22:13:11.258Z,77.80
2017-04-03T22:14:09.527Z,78.10
2017-04-03T22:15:07.895Z,78.20
2017-04-03T22:16:06.162Z,78.40
2017-04-03T22:17:04.424Z,78.60
2017-04-03T22:18:02.706Z,78.60
2017-04-03T22:19:00.965Z,78.60
2017-04-03T22:19:59.202Z,78.40
2017-04-03T22:20:57.547Z,78.30
2017-04-03T22:21:55.814Z,78.20
2017-04-03T22:22:54.094Z,78.10
2017-04-03T22:23:52.350Z,78.20
2017-04-03T22:24:50.636Z,78.30
2017-04-03T22:25:54.488Z,78.30
2017-04-03T22:26:52.814Z,78.30
2017-04-03T22:27:51.067Z,78.30
2017-04-03T22:28:49.323Z,78.50
2017-04-03T22:29:47.628Z,78.60
2017-04-03T22:30:45.923Z,78.70
2017-04-03T22:31:44.179Z,78.80
2017-04-03T22:32:42.519Z,78.90
2017-04-03T22:33:40.786Z,78.90
2017-04-03T22:34:39.044Z,78.90
2017-04-03T22:35:38.077Z,78.80
2017-04-03T22:36:36.371Z,78.80
2017-04-03T22:37:34.698Z,78.90
2017-04-03T22:38:33.068Z,78.80
2017-04-03T22:39:31.532Z,78.70
2017-04-03T22:40:29.794Z,78.60
2017-04-03T22:41:28.043Z,78.50
2017-04-03T22:42:26.307Z,78.40
2017-04-03T22:43:24.642Z,78.30
2017-04-03T22:44:23.011Z,78.50
2017-04-03T22:45:21.295Z,78.60
2017-04-03T22:46:19.647Z,78.80
2017-04-03T22:47:17.913Z,79.10
2017-04-03T22:48:16.158Z,79.20
2017-04-03T22:49:14.403Z,79.20
2017-04-03T22:50:13.532Z,79.30
2017-04-03T22:51:11.788Z,79.30
2017-04-03T22:52:10.093Z,79.30
2017-04-03T22:53:08.418Z,79.30
2017-04-03T22:54:06.746Z,79.40
2017-04-03T22:55:05.016Z,79.40
2017-04-03T22:56:04.131Z,79.60
2017-04-03T22:57:02.390Z,79.50
2017-04-03T22:58:00.663Z,79.60
2017-04-03T22:58:58.942Z,79.50
2017-04-03T22:59:57.221Z,79.30
2017-04-03T23:00:56.246Z,79.20
2017-04-03T23:01:54.598Z,79.20
2017-04-03T23:02:53.623Z,79.00
2017-04-03T23:03:51.872Z,79.00
2017-04-03T23:04:50.133Z,78.90
2017-04-03T23:05:49.165Z,78.90
2017-04-03T23:06:47.544Z,78.80
2017-04-03T23:07:45.866Z,78.90
2017-04-03T23:08:44.156Z,79.10
2017-04-03T23:09:42.395Z,79.30
2017-04-03T23:10:40.662Z,79.50
2017-04-03T23:11:38.905Z,79.70
2017-04-03T23:12:37.914Z,79.80
2017-04-03T23:13:36.267Z,79.80
2017-04-03T23:14:34.561Z,79.70
2017-04-03T23:15:32.824Z,79.80
2017-04-03T23:16:31.862Z,79.60
2017-04-03T23:17:30.867Z,79.50
2017-04-03T23:18:29.121Z,79.50
2017-04-03T23:19:27.561Z,79.50
2017-04-03T23:20:25.904Z,79.60
2017-04-03T23:21:24.177Z,79.60
2017-04-03T23:22:22.466Z,79.60
2017-04-03T23:23:21.504Z,79.60
2017-04-03T23:24:19.768Z,79.50
2017-04-03T23:25:18.125Z,79.60
2017-04-03T23:26:16.434Z,79.70
2017-04-03T23:27:14.734Z,79.80
2017-04-03T23:28:13.041Z,79.80
2017-04-03T23:29:11.310Z,79.90
2017-04-03T23:30:09.588Z,79.90
2017-04-03T23:31:07.903Z,79.90
2017-04-03T23:32:06.165Z,79.90
2017-04-03T23:33:04.434Z,79.80
2017-04-03T23:34:02.708Z,79.80
2017-04-03T23:35:01.750Z,79.70
2017-04-03T23:36:00.054Z,79.70
2017-04-03T23:36:58.522Z,79.60
2017-04-03T23:37:57.544Z,79.40
2017-04-03T23:38:55.829Z,79.40
2017-04-03T23:39:54.077Z,79.70
2017-04-03T23:40:52.324Z,79.90
2017-04-03T23:41:50.619Z,80.00
2017-04-03T23:42:49.731Z,80.00
2017-04-03T23:43:48.106Z,79.90
2017-04-03T23:44:46.347Z,79.90
2017-04-03T23:45:45.402Z,80.10
2017-04-03T23:46:43.650Z,79.50
2017-04-03T23:47:41.926Z,79.60
2017-04-03T23:48:40.294Z,79.60
2017-04-03T23:49:38.541Z,79.60
2017-04-03T23:50:36.786Z,79.70
2017-04-03T23:51:35.061Z,79.80
2017-04-03T23:52:33.323Z,79.80
2017-04-03T23:53:31.619Z,79.70
2017-04-03T23:54:29.978Z,80.30
2017-04-03T23:55:28.217Z,79.80
2017-04-03T23:56:26.505Z,79.80
2017-04-03T23:57:24.759Z,79.90
2017-04-03T23:58:23.039Z,80.00
2017-04-03T23:59:21.362Z,80.00
